GVBAW ENTC-ZZZZ

Flight info

Callsign GVBAW
Flight time N/A
Altitude 1500
Route ENTC/36 LT
Aircraft C152/L-VGD/A

Departure

Time 2026-05-04 17:14
Airport Tromsø Airport (ENTC)

Arrival

Time N/A
Airport ZZZZ
Time Latitude Longitude Altitude Speed Heading
2026-05-04 17:09 69.67756 18.90744 27 ft 0 kts 283°
2026-05-04 17:12 69.67752 18.90727 27 ft 5 kts 198°
2026-05-04 17:12 69.67732 18.91027 27 ft 0 kts 100°
2026-05-04 17:13 69.67616 18.91344 28 ft 16 kts 113°
2026-05-04 17:14 69.68300 18.91847 113 ft 73 kts 13°
2026-05-04 17:14 69.68810 18.92216 249 ft 78 kts 18°
2026-05-04 17:14 69.69762 18.92290 810 ft 65 kts 334°
2026-05-04 17:15 69.69970 18.91048 997 ft 78 kts 292°
2026-05-04 17:15 69.69771 18.88902 1364 ft 80 kts 204°
2026-05-04 17:16 69.68588 18.88724 1599 ft 86 kts 187°
2026-05-04 17:16 69.67067 18.88335 1822 ft 64 kts 204°
2026-05-04 17:17 69.66680 18.87739 1823 ft 65 kts 216°
2026-05-04 17:17 69.65819 18.89588 1155 ft 73 kts 61°
2026-05-04 17:18 69.66210 18.90287 688 ft 61 kts 38°
2026-05-04 17:18 69.66958 18.90948 148 ft 54 kts 19°
2026-05-04 17:19 69.67671 18.91435 28 ft 46 kts 19°
2026-05-04 17:19 69.68407 18.91903 135 ft 70 kts 13°
2026-05-04 17:20 69.69377 18.92406 512 ft 70 kts
2026-05-04 17:20 69.70035 18.90804 925 ft 80 kts 286°
2026-05-04 17:20 69.69935 18.89171 1097 ft 86 kts 229°
2026-05-04 17:21 69.68749 18.88369 1375 ft 91 kts 175°
2026-05-04 17:21 69.67615 18.87717 1781 ft 78 kts 201°
2026-05-04 17:22 69.67111 18.87238 1773 ft 72 kts 202°
2026-05-04 17:22 69.66661 18.86993 1901 ft 63 kts 175°
2026-05-04 17:23 69.66048 18.89978 1371 ft 75 kts 45°
2026-05-04 17:23 69.66494 18.90621 805 ft 66 kts 37°
2026-05-04 17:23 69.67301 18.91199 71 ft 55 kts 19°
2026-05-04 17:24 69.67624 18.91418 28 ft 39 kts 21°
2026-05-04 17:24 69.68871 18.92242 370 ft 72 kts 18°
2026-05-04 17:25 69.69355 18.92607 582 ft 71 kts 10°
2026-05-04 17:25 69.70204 18.91851 1021 ft 71 kts 299°
2026-05-04 17:26 69.69938 18.89238 1391 ft 82 kts 200°
2026-05-04 17:26 69.68504 18.87157 1715 ft 76 kts 228°
2026-05-04 17:27 69.67471 18.86260 1767 ft 80 kts 200°
2026-05-04 17:27 69.66445 18.85699 1579 ft 69 kts 166°
2026-05-04 17:28 69.66218 18.87904 1325 ft 64 kts 112°
2026-05-04 17:29 69.66697 18.90800 343 ft 62 kts
2026-05-04 17:29 69.67781 18.91528 27 ft 44 kts 12°
2026-05-04 17:30 69.69130 18.92268 510 ft 65 kts
2026-05-04 17:31 69.69956 18.92269 936 ft 65 kts 346°
2026-05-04 17:31 69.69314 18.89211 1380 ft 92 kts 188°
2026-05-04 17:32 69.68082 18.88685 1559 ft 99 kts 185°
2026-05-04 17:33 69.66443 18.88307 1050 ft 66 kts 132°
2026-05-04 17:33 69.66383 18.89366 849 ft 65 kts 46°
2026-05-04 17:34 69.67372 18.91246 53 ft 55 kts 18°
2026-05-04 17:34 69.67704 18.91484 27 ft 40 kts 14°
2026-05-04 17:35 69.68965 18.92215 482 ft 66 kts 10°
2026-05-04 17:35 69.69822 18.92018 918 ft 68 kts 311°
2026-05-04 17:35 69.69953 18.90609 1079 ft 78 kts 277°
2026-05-04 17:36 69.69958 18.89044 1288 ft 78 kts 242°
2026-05-04 17:36 69.69507 18.88201 1467 ft 81 kts 194°
2026-05-04 17:36 69.68965 18.87706 1627 ft 82 kts 205°
2026-05-04 17:36 69.68483 18.86789 1777 ft 84 kts 204°
2026-05-04 17:37 69.67905 18.86190 1870 ft 89 kts 192°
2026-05-04 17:37 69.67282 18.86026 1990 ft 89 kts 175°
2026-05-04 17:37 69.66732 18.86596 1959 ft 85 kts 150°
2026-05-04 17:37 69.66280 18.87338 1791 ft 70 kts 138°
2026-05-04 17:38 69.66092 18.88659 1509 ft 74 kts 111°
2026-05-04 17:38 69.65928 18.89916 1032 ft 64 kts 35°
2026-05-04 17:38 69.66320 18.90546 489 ft 65 kts
2026-05-04 17:38 69.66728 18.90804 224 ft 58 kts 20°
2026-05-04 17:39 69.67474 18.91316 33 ft 51 kts 18°
2026-05-04 17:39 69.67764 18.91517 26 ft 33 kts 13°
2026-05-04 17:39 69.67939 18.91629 27 ft 19 kts 14°
2026-05-04 17:40 69.68036 18.91690 24 ft 16 kts
2026-05-04 17:40 69.68304 18.91876 35 ft 60 kts
2026-05-04 17:40 69.68750 18.92126 188 ft 66 kts
2026-05-04 17:40 69.69197 18.92182 433 ft 61 kts 343°
2026-05-04 17:41 69.69523 18.91322 610 ft 72 kts 304°
2026-05-04 17:41 69.69724 18.89920 789 ft 81 kts 277°
2026-05-04 17:41 69.69386 18.88506 910 ft 97 kts 206°
2026-05-04 17:41 69.68748 18.87928 1046 ft 98 kts 184°
2026-05-04 17:42 69.68039 18.87691 1031 ft 103 kts 180°
2026-05-04 17:42 69.67374 18.87454 1055 ft 94 kts 179°
2026-05-04 17:42 69.66715 18.87130 1046 ft 99 kts 187°
2026-05-04 17:42 69.66101 18.87584 1000 ft 80 kts 121°
2026-05-04 17:43 69.65798 18.88813 841 ft 74 kts 108°
2026-05-04 17:43 69.66030 18.89908 654 ft 73 kts 39°
2026-05-04 17:43 69.66400 18.90550 409 ft 58 kts 23°
2026-05-04 17:43 69.66796 18.90843 200 ft 58 kts 18°
2026-05-04 17:44 69.67164 18.91107 76 ft 54 kts 19°
2026-05-04 17:44 69.67509 18.91338 32 ft 49 kts 19°
2026-05-04 17:44 69.67831 18.91553 34 ft 59 kts 13°
2026-05-04 17:44 69.68293 18.91833 163 ft 72 kts 14°
2026-05-04 17:45 69.68800 18.92219 303 ft 79 kts 18°
2026-05-04 17:45 69.69322 18.92755 471 ft 78 kts 25°
2026-05-04 17:45 69.69786 18.93187 776 ft 67 kts 356°
2026-05-04 17:45 69.70134 18.92272 965 ft 79 kts 300°
2026-05-04 17:46 69.70207 18.90681 1149 ft 82 kts 261°
2026-05-04 17:46 69.69924 18.89429 1316 ft 89 kts 204°
2026-05-04 17:46 69.69351 18.88979 1563 ft 84 kts 186°
2026-05-04 17:46 69.68756 18.88809 1693 ft 86 kts 184°
2026-05-04 17:47 69.68196 18.88528 1816 ft 75 kts 188°
2026-05-04 17:47 69.67665 18.88260 1792 ft 75 kts 192°
2026-05-04 17:47 69.67159 18.87818 1582 ft 71 kts 204°
2026-05-04 17:47 69.66684 18.87091 1232 ft 81 kts 220°
2026-05-04 17:48 69.66272 18.86188 889 ft 90 kts 160°
2026-05-04 17:48 69.65861 18.87104 738 ft 61 kts 110°
2026-05-04 17:48 69.65716 18.87812 614 ft 69 kts 102°
2026-05-04 17:48 69.65736 18.89225 394 ft 53 kts 60°
2026-05-04 17:49 69.65937 18.90157 314 ft 54 kts 38°
2026-05-04 17:49 69.66279 18.90498 241 ft 55 kts 16°
2026-05-04 17:49 69.66650 18.90736 180 ft 54 kts 15°
2026-05-04 17:49 69.67014 18.91006 97 ft 53 kts 18°
2026-05-04 17:50 69.67361 18.91242 37 ft 49 kts 18°
2026-05-04 17:50 69.67619 18.91440 28 ft 30 kts 19°
2026-05-04 17:50 69.67809 18.91562 27 ft 32 kts
2026-05-04 17:50 69.67917 18.91633 26 ft 0 kts 71°
2026-05-04 17:51 69.67847 18.91585 27 ft 19 kts 194°
2026-05-04 17:51 69.67757 18.91580 27 ft 7 kts 116°
2026-05-04 17:51 69.67741 18.91772 26 ft 14 kts 104°
2026-05-04 17:51 69.67731 18.91907 26 ft 7 kts 105°
2026-05-04 17:52 69.67698 18.91954 26 ft 7 kts 194°
2026-05-04 17:52 69.67632 18.91907 27 ft 14 kts 197°
2026-05-04 17:52 69.67536 18.91834 28 ft 6 kts 210°
2026-05-04 17:52 69.67498 18.91819 28 ft 10 kts 190°
2026-05-04 17:53 69.67443 18.91785 29 ft 7 kts 191°
2026-05-04 17:53 69.67441 18.91784 29 ft 0 kts 191°